Current Conditions - Area Ports

 

CYWH - Victoria Harbour, British Columbia, Canada
Distance from station: WSW 10km
Updated: 10/15/2019 6:00pm
Mostly cloudy
Mostly cloudy
 Wind from N
Wind: N 11 km/h
Temperature: 12°C
Dew Point: 9°C
Humidity: 82%
Barometer: 1011.9 hPa
Clouds: Mostly cloudy
Visibility: 24 km
Cloud details: Few Clouds 1219 m
Mostly cloudy 2134 m
Mostly cloudy 3658 m
2019/10/16 01:00 CYWH 160100Z 36006KT 15SM FEW040 BKN070 BKN120 12/09 A2988 RMK SC2AC4AC1 SLP118
KFHR - Friday Harbor, Washington, USA
Distance from station: ENE 19km
Updated: 10/15/2019 6:53pm
Overcast
Overcast
 Wind from SE
Wind: SE 13 km/h
Temperature: 13°C
Dew Point: 8°C
Humidity: 72%
Barometer: 1011.9 hPa
Clouds: Overcast
Visibility: 16 km
Cloud details: Partly cloudy 1981 m
Overcast 3048 m
2019/10/16 01:53 KFHR 160153Z AUTO 13007KT 10SM SCT065 OVC100 13/08 A2988 RMK AO2 SLP117 T01280078
 
KORS - Eastsound/Orcas, Washington, USA
Distance from station: NE 38km
Updated: 10/15/2019 6:55pm
Overcast
Overcast
 Wind from varies
Wind: varies 6 km/h
Temperature: 14°C
Dew Point: 8°C
Humidity: 67%
Barometer: 1011.9 hPa
Clouds: Overcast
Visibility: 16 km
Cloud details: Overcast 1981 m
2019/10/16 01:55 KORS 160155Z AUTO VRB03KT 10SM OVC065 14/08 A2988 RMK AO2
KNUW - Whidbey Is. Nas, Washington, USA
Distance from station: ESE 47km
Updated: 10/15/2019 5:56pm
Mostly cloudy
Mostly cloudy
 Wind from SE
Wind: SE 39 km/h, Gust: 54 km/h
Temperature: 17°C
Dew Point: 6°C
Humidity: 49%
Barometer: 1013.2 hPa
Clouds: Mostly cloudy
Visibility: 16 km
Cloud details: Few Clouds 914 m
Partly cloudy 1829 m
Mostly cloudy 2743 m
Mostly cloudy 4572 m
Mostly cloudy 7620 m
2019/10/16 00:56 KNUW 160056Z 14021G29KT 10SM FEW030 SCT060 BKN090 BKN150 BKN250 17/06 A2992 RMK PK WND 14029/0053 SLP129 T01670061
 
CWEZ - Saturna Isl (map, British Columbia, Canada
Distance from station: NNE 40km
Updated: 10/15/2019 6:00pm

 Wind from ENE
Wind: ENE 20 km/h
Temperature: 11°C
Dew Point: 10°C
Humidity: 94%
2019/10/16 01:00 CWEZ 160100Z AUTO 07011KT 11/10 RMK AO1 SLP119 T01120095 56019
CYCD - Nanaimo Airport, British Columbia, Canada
Distance from station: NW 80km
Updated: 10/15/2019 6:00pm
Light rain, Mist, Overcast
Light rain, Mist, Overcast
 Wind from SSE
Wind: SSE 13 km/h
Temperature: 10°C
Wind Chill: 8°C
Dew Point: 9°C
Humidity: 94%
Barometer: 1012.5 hPa
Summary: Light rain, Mist
Clouds: Overcast
Visibility: 6 km
Cloud details: Few Clouds 244 m
Mostly cloudy 488 m
Overcast 1524 m
2019/10/16 01:00 CYCD 160100Z 15007KT 4SM -RA BR FEW008 BKN016 OVC050 10/09 A2990 RMK SF2SC3SC3 SLP126
 
CWVF - Sand Heads (ls), British Columbia, Canada
Distance from station: N 72km
Updated: 10/15/2019 6:00pm

 Wind from ENE
Wind: ENE 30 km/h
Temperature: 11°C
Dew Point: 8°C
Humidity: 82%
2019/10/16 01:00 CWVF 160100Z AUTO 07016KT 11/08 RMK AO1 PK WND 08017/0003 T01110081
CWQK - Race Rocks Autob, British Columbia, Canada
Distance from station: SW 26km
Updated: 10/15/2019 6:00pm

 Wind from N
Wind: N 31 km/h
Temperature: 12°C
Dew Point: 9°C
Humidity: 82%
2019/10/16 01:00 CWQK 160100Z AUTO 01017KT 12/09 RMK AO1 PK WND 01018/0052 SLP113 T01150088 58017
 
CWSP - Sheringham Autob, British Columbia, Canada
Distance from station: W 49km
Updated: 10/15/2019 6:00pm

 Wind from E
Wind: E 7 km/h
Temperature: 11°C
2019/10/16 01:00 CWSP 160100Z AUTO 09004KT 11/ RMK AO1 2PAST HR 7012 SLP117 P0001 T0110 50002